createdAt,value
2022-11-17T00:00:27.147Z,9.95
2022-11-17T00:01:28.677Z,10.18
2022-11-17T00:02:30.372Z,10.02
2022-11-17T00:03:31.995Z,9.98
2022-11-17T00:04:33.593Z,9.93
2022-11-17T00:05:35.856Z,10.07
2022-11-17T00:06:37.377Z,9.80
2022-11-17T00:07:39.140Z,10.27
2022-11-17T00:08:40.811Z,10.43
2022-11-17T00:09:42.450Z,9.50
2022-11-17T00:10:43.985Z,10.60
2022-11-17T00:12:05.255Z,9.48
2022-11-17T00:13:25.099Z,9.40
2022-11-17T00:14:36.915Z,10.20
2022-11-17T00:15:43.026Z,9.82
2022-11-17T00:16:50.000Z,10.63
2022-11-17T00:18:12.023Z,9.35
2022-11-17T00:19:31.979Z,10.13
2022-11-17T00:20:51.899Z,10.25
2022-11-17T00:21:53.490Z,9.63
2022-11-17T00:22:55.025Z,9.82
2022-11-17T00:23:57.047Z,9.98
2022-11-17T00:24:59.017Z,9.57
2022-11-17T00:26:00.517Z,9.95
2022-11-17T00:27:02.183Z,9.68
2022-11-17T00:28:03.761Z,9.52
2022-11-17T00:29:05.924Z,9.20
2022-11-17T00:30:08.696Z,10.45
2022-11-17T00:31:33.000Z,9.93
2022-11-17T00:32:53.188Z,9.40
2022-11-17T00:34:07.227Z,9.73
2022-11-17T00:35:08.883Z,9.38
2022-11-17T00:36:10.418Z,9.93
2022-11-17T00:37:14.736Z,10.13
2022-11-17T00:38:16.250Z,9.68
2022-11-17T00:39:19.909Z,10.07
2022-11-17T00:40:21.427Z,9.23
2022-11-17T00:41:22.961Z,9.52
2022-11-17T00:42:24.516Z,9.30
2022-11-17T00:43:26.006Z,9.68
2022-11-17T00:44:27.800Z,9.48
2022-11-17T00:45:29.348Z,9.68
2022-11-17T00:46:31.634Z,9.00
2022-11-17T00:47:35.934Z,10.13
2022-11-17T00:48:37.447Z,9.45
2022-11-17T00:49:39.042Z,9.90
2022-11-17T00:50:40.573Z,9.85
2022-11-17T00:51:42.427Z,9.30
2022-11-17T00:52:43.976Z,9.25
2022-11-17T00:53:45.957Z,9.13
2022-11-17T00:54:47.514Z,9.05
2022-11-17T00:55:49.047Z,9.32
2022-11-17T00:56:50.797Z,9.40
2022-11-17T00:57:52.384Z,10.30
2022-11-17T00:58:54.697Z,9.88
2022-11-17T00:59:56.266Z,10.00
2022-11-17T01:00:57.821Z,9.30
2022-11-17T01:01:59.436Z,9.40
2022-11-17T01:03:01.006Z,9.52
2022-11-17T01:04:03.840Z,9.60
2022-11-17T01:05:06.021Z,9.32
2022-11-17T01:06:13.578Z,9.48
2022-11-17T01:07:15.224Z,8.77
2022-11-17T01:08:16.881Z,8.68
2022-11-17T01:09:22.770Z,9.07
2022-11-17T01:10:24.294Z,9.55
2022-11-17T01:11:26.029Z,9.25
2022-11-17T01:12:27.537Z,9.20
2022-11-17T01:13:29.082Z,9.02
2022-11-17T01:14:32.655Z,9.35
2022-11-17T01:15:34.388Z,8.38
2022-11-17T01:16:35.910Z,9.15
2022-11-17T01:17:37.454Z,8.75
2022-11-17T01:18:39.504Z,9.88
2022-11-17T01:19:41.153Z,9.52
2022-11-17T01:20:42.659Z,9.05
2022-11-17T01:21:44.689Z,9.10
2022-11-17T01:22:46.208Z,9.73
2022-11-17T01:23:49.197Z,9.45
2022-11-17T01:24:50.721Z,9.48
2022-11-17T01:25:52.218Z,8.98
2022-11-17T01:26:53.776Z,9.57
2022-11-17T01:27:55.308Z,9.40
2022-11-17T01:28:57.196Z,8.73
2022-11-17T01:29:58.769Z,9.05
2022-11-17T01:31:06.981Z,9.15
2022-11-17T01:32:08.535Z,8.85
2022-11-17T01:33:10.062Z,9.20
2022-11-17T01:34:12.037Z,9.20
2022-11-17T01:35:13.558Z,9.52
2022-11-17T01:36:17.833Z,9.52
2022-11-17T01:37:19.354Z,8.65
2022-11-17T01:38:21.007Z,9.35
2022-11-17T01:39:24.184Z,8.60
2022-11-17T01:40:25.747Z,8.98
2022-11-17T01:41:28.387Z,9.18
2022-11-17T01:42:29.993Z,9.10
2022-11-17T01:43:42.485Z,9.02
2022-11-17T01:44:56.392Z,8.73
2022-11-17T01:45:58.365Z,9.18
2022-11-17T01:47:01.167Z,8.85
2022-11-17T01:48:06.859Z,8.63
2022-11-17T01:49:11.088Z,8.70
2022-11-17T01:50:19.687Z,8.45
2022-11-17T01:51:22.540Z,9.48
2022-11-17T01:52:25.091Z,8.93
2022-11-17T01:53:28.479Z,8.80
2022-11-17T01:54:32.794Z,9.20
2022-11-17T01:55:50.457Z,8.75
2022-11-17T01:57:02.180Z,8.77
2022-11-17T01:58:14.015Z,8.80
2022-11-17T01:59:33.452Z,8.55
2022-11-17T02:00:35.137Z,9.45
2022-11-17T02:01:55.612Z,8.45
2022-11-17T02:02:57.910Z,9.45
2022-11-17T02:04:00.684Z,8.38
2022-11-17T02:05:06.136Z,8.43
2022-11-17T02:06:11.767Z,8.60
2022-11-17T02:07:29.810Z,8.57
2022-11-17T02:08:33.858Z,8.75
2022-11-17T02:09:39.152Z,8.82
2022-11-17T02:10:44.751Z,8.40
2022-11-17T02:11:50.271Z,8.40
2022-11-17T02:12:53.337Z,8.63
2022-11-17T02:13:55.988Z,8.70
2022-11-17T02:14:57.584Z,8.65
2022-11-17T02:15:59.158Z,8.52
2022-11-17T02:17:10.083Z,8.88
2022-11-17T02:18:17.433Z,8.95
2022-11-17T02:19:24.478Z,8.45
2022-11-17T02:20:40.898Z,8.25
2022-11-17T02:22:04.237Z,9.00
2022-11-17T02:23:24.229Z,8.70
2022-11-17T02:24:45.976Z,8.48
2022-11-17T02:26:11.937Z,7.93
2022-11-17T02:27:37.942Z,8.27
2022-11-17T02:29:16.322Z,8.32
2022-11-17T02:30:20.540Z,8.25
2022-11-17T02:31:50.897Z,8.27
2022-11-17T02:33:03.411Z,7.97
2022-11-17T02:34:26.277Z,8.50
2022-11-17T02:35:41.595Z,8.55
2022-11-17T02:36:59.230Z,8.07
2022-11-17T02:38:21.153Z,7.90
2022-11-17T02:39:27.629Z,7.60
2022-11-17T02:40:43.899Z,8.57
2022-11-17T02:42:03.809Z,7.82
2022-11-17T02:43:32.627Z,7.50
2022-11-17T02:44:57.267Z,7.88
2022-11-17T02:46:04.930Z,7.97
2022-11-17T02:47:16.231Z,8.00
2022-11-17T02:48:44.903Z,7.88
2022-11-17T02:49:59.066Z,7.45
2022-11-17T02:51:02.734Z,7.68
2022-11-17T02:52:06.104Z,8.13
2022-11-17T02:53:08.417Z,7.60
2022-11-17T02:54:11.591Z,7.63
2022-11-17T02:55:14.021Z,8.48
2022-11-17T02:56:15.598Z,7.78
2022-11-17T02:57:38.361Z,7.80
2022-11-17T02:58:39.887Z,7.80
2022-11-17T02:59:46.550Z,7.75
2022-11-17T03:01:06.833Z,7.47
2022-11-17T03:02:30.407Z,7.93
2022-11-17T03:03:56.674Z,7.35
2022-11-17T03:05:43.262Z,7.80
2022-11-17T03:06:55.185Z,7.18
2022-11-17T03:08:33.755Z,8.38
2022-11-17T03:09:50.371Z,7.85
2022-11-17T03:11:00.141Z,7.57
2022-11-17T03:12:29.387Z,7.50
2022-11-17T03:13:41.965Z,7.95
2022-11-17T03:14:46.450Z,7.97
2022-11-17T03:16:25.769Z,7.15
2022-11-17T03:17:38.382Z,7.57
2022-11-17T03:18:51.466Z,7.80
2022-11-17T03:20:22.089Z,7.40
2022-11-17T03:21:30.074Z,7.28
2022-11-17T03:22:58.189Z,7.63
2022-11-17T03:24:07.929Z,7.18
2022-11-17T03:25:14.812Z,7.72
2022-11-17T03:26:23.586Z,8.10
2022-11-17T03:27:33.933Z,7.60
2022-11-17T03:28:36.430Z,7.88
2022-11-17T03:29:41.621Z,7.45
2022-11-17T03:30:45.728Z,7.30
2022-11-17T03:31:52.393Z,7.72
2022-11-17T03:32:58.670Z,7.55
2022-11-17T03:34:05.173Z,7.30
2022-11-17T03:35:14.419Z,7.32
2022-11-17T03:36:25.170Z,6.78
2022-11-17T03:37:31.468Z,7.45
2022-11-17T03:38:40.449Z,7.63
2022-11-17T03:39:46.457Z,6.78
2022-11-17T03:40:52.796Z,7.60
2022-11-17T03:42:00.830Z,7.05
2022-11-17T03:43:07.441Z,7.63
2022-11-17T03:44:10.005Z,7.25
2022-11-17T03:45:18.163Z,7.40
2022-11-17T03:46:22.751Z,7.55
2022-11-17T03:47:27.260Z,7.63
2022-11-17T03:48:35.714Z,7.28
2022-11-17T03:49:49.091Z,7.85
2022-11-17T03:51:04.603Z,7.30
2022-11-17T03:52:06.978Z,7.70
2022-11-17T03:53:08.837Z,7.38
2022-11-17T03:54:10.548Z,7.10
2022-11-17T03:55:13.378Z,6.95
2022-11-17T03:56:39.619Z,7.63
2022-11-17T03:57:50.853Z,7.43
2022-11-17T03:59:01.471Z,7.50
2022-11-17T04:00:11.382Z,7.65
2022-11-17T04:01:14.729Z,7.15
2022-11-17T04:02:21.341Z,7.82
2022-11-17T04:03:23.369Z,7.10
2022-11-17T04:04:24.928Z,7.25
2022-11-17T04:05:27.739Z,7.68
2022-11-17T04:06:29.290Z,7.05
2022-11-17T04:07:31.742Z,7.40
2022-11-17T04:08:33.308Z,7.82
2022-11-17T04:09:34.837Z,7.28
2022-11-17T04:10:56.324Z,7.07
2022-11-17T04:12:16.219Z,7.80
2022-11-17T04:13:36.266Z,7.43
2022-11-17T04:14:56.343Z,7.13
2022-11-17T04:15:59.276Z,6.50
2022-11-17T04:17:00.954Z,7.10
2022-11-17T04:18:03.680Z,6.72
2022-11-17T04:19:05.211Z,7.53
2022-11-17T04:20:07.485Z,7.00
2022-11-17T04:21:09.037Z,6.95
2022-11-17T04:22:10.556Z,7.05
2022-11-17T04:23:14.825Z,7.57
2022-11-17T04:24:16.358Z,7.07
2022-11-17T04:25:37.814Z,7.40
2022-11-17T04:26:57.863Z,6.45
2022-11-17T04:28:17.680Z,6.93
2022-11-17T04:29:19.222Z,6.70
2022-11-17T04:30:20.743Z,6.50
2022-11-17T04:31:28.174Z,6.78
2022-11-17T04:32:29.731Z,6.90
2022-11-17T04:33:31.543Z,7.05
2022-11-17T04:34:33.101Z,6.85
2022-11-17T04:35:34.623Z,6.70
2022-11-17T04:36:43.509Z,6.95
2022-11-17T04:37:45.013Z,7.28
2022-11-17T04:38:49.417Z,6.57
2022-11-17T04:39:50.931Z,6.97
2022-11-17T04:41:11.338Z,7.00
2022-11-17T04:42:12.887Z,6.90
2022-11-17T04:43:14.494Z,6.78
2022-11-17T04:44:17.745Z,6.72
2022-11-17T04:45:19.270Z,6.85
2022-11-17T04:46:22.014Z,6.88
2022-11-17T04:47:23.573Z,6.88
2022-11-17T04:48:25.096Z,7.00
2022-11-17T04:49:26.822Z,6.22
2022-11-17T04:50:28.312Z,6.80
2022-11-17T04:51:31.742Z,6.80
2022-11-17T04:52:33.314Z,6.47
2022-11-17T04:53:35.090Z,7.10
2022-11-17T04:54:36.815Z,6.82
2022-11-17T04:55:38.335Z,7.13
2022-11-17T04:56:40.103Z,6.65
2022-11-17T04:57:41.626Z,6.63
2022-11-17T04:58:43.214Z,6.30
2022-11-17T04:59:44.790Z,7.10
2022-11-17T05:00:46.296Z,6.88
2022-11-17T05:01:48.022Z,6.78
2022-11-17T05:02:49.565Z,6.82
2022-11-17T05:03:53.286Z,6.35
2022-11-17T05:04:57.698Z,6.53
2022-11-17T05:05:59.217Z,6.18
2022-11-17T05:07:00.801Z,7.03
2022-11-17T05:08:02.381Z,7.32
2022-11-17T05:09:07.258Z,6.50
2022-11-17T05:10:09.217Z,7.10
2022-11-17T05:11:31.509Z,7.22
2022-11-17T05:13:11.049Z,6.53
2022-11-17T05:14:14.302Z,6.43
2022-11-17T05:15:35.813Z,6.55
2022-11-17T05:16:56.035Z,6.93
2022-11-17T05:17:57.582Z,6.53
2022-11-17T05:18:59.130Z,6.30
2022-11-17T05:20:01.255Z,6.28
2022-11-17T05:21:07.046Z,6.28
2022-11-17T05:22:28.363Z,6.38
2022-11-17T05:23:48.521Z,6.28
2022-11-17T05:24:50.246Z,6.38
2022-11-17T05:25:53.982Z,6.68
2022-11-17T05:26:55.722Z,6.70
2022-11-17T05:27:57.254Z,6.50
2022-11-17T05:29:00.845Z,6.90
2022-11-17T05:30:04.596Z,6.43
2022-11-17T05:31:06.193Z,6.78
2022-11-17T05:32:07.729Z,6.30
2022-11-17T05:33:09.242Z,6.20
2022-11-17T05:34:13.227Z,6.45
2022-11-17T05:35:14.861Z,6.40
2022-11-17T05:36:17.186Z,6.63
2022-11-17T05:37:18.865Z,6.70
2022-11-17T05:38:20.454Z,6.72
2022-11-17T05:39:22.044Z,6.25
2022-11-17T05:40:23.545Z,6.43
2022-11-17T05:41:26.138Z,6.20
2022-11-17T05:42:27.676Z,7.07
2022-11-17T05:43:29.317Z,6.65
2022-11-17T05:44:30.883Z,6.32
2022-11-17T05:45:32.390Z,6.55
2022-11-17T05:46:33.980Z,5.88
2022-11-17T05:47:35.494Z,6.18
2022-11-17T05:48:37.229Z,6.35
2022-11-17T05:49:38.763Z,6.28
2022-11-17T05:50:40.484Z,6.00
2022-11-17T05:51:42.008Z,6.40
2022-11-17T05:52:43.519Z,6.40
2022-11-17T05:53:45.060Z,5.78
2022-11-17T05:54:46.628Z,6.30
2022-11-17T05:55:48.678Z,5.90
2022-11-17T05:56:55.841Z,6.18
2022-11-17T05:58:00.589Z,6.07
2022-11-17T05:59:28.007Z,6.40
2022-11-17T06:00:31.532Z,6.40
2022-11-17T06:01:35.168Z,6.07
2022-11-17T06:03:00.577Z,6.60
2022-11-17T06:04:04.618Z,5.97
2022-11-17T06:05:07.649Z,6.30
2022-11-17T06:06:09.766Z,6.18
2022-11-17T06:07:11.441Z,6.03
2022-11-17T06:08:13.090Z,6.90
2022-11-17T06:09:15.203Z,7.28
2022-11-17T06:10:17.608Z,6.80
2022-11-17T06:11:19.449Z,6.00
2022-11-17T06:12:20.967Z,5.93
2022-11-17T06:13:26.085Z,6.60
2022-11-17T06:14:27.641Z,5.88
2022-11-17T06:15:30.129Z,6.45
2022-11-17T06:16:34.307Z,6.30
2022-11-17T06:18:07.571Z,6.03
2022-11-17T06:19:15.954Z,5.63
2022-11-17T06:20:28.294Z,6.00
2022-11-17T06:21:43.282Z,5.75
2022-11-17T06:22:51.688Z,6.00
2022-11-17T06:23:53.281Z,5.65
2022-11-17T06:24:55.711Z,6.10
2022-11-17T06:25:59.600Z,5.80
2022-11-17T06:27:01.521Z,6.20
2022-11-17T06:28:06.096Z,6.03
2022-11-17T06:29:09.096Z,5.97
2022-11-17T06:30:11.591Z,6.10
2022-11-17T06:31:14.179Z,6.43
2022-11-17T06:32:18.951Z,5.97
2022-11-17T06:33:20.805Z,6.10
2022-11-17T06:34:22.378Z,5.97
2022-11-17T06:35:24.941Z,5.65
2022-11-17T06:36:26.548Z,6.15
2022-11-17T06:37:28.304Z,6.10
2022-11-17T06:38:31.492Z,5.50
2022-11-17T06:39:33.128Z,6.20
2022-11-17T06:40:34.708Z,5.93
2022-11-17T06:41:37.558Z,6.65
2022-11-17T06:42:58.143Z,5.40
2022-11-17T06:43:59.840Z,5.75
2022-11-17T06:45:01.399Z,6.00
2022-11-17T06:46:06.193Z,5.88
2022-11-17T06:47:07.700Z,5.60
2022-11-17T06:48:11.024Z,5.50
2022-11-17T06:49:12.645Z,6.10
2022-11-17T06:50:14.298Z,6.22
2022-11-17T06:51:15.878Z,5.97
2022-11-17T06:52:17.401Z,6.18
2022-11-17T06:53:19.032Z,5.88
2022-11-17T06:54:20.610Z,5.40
2022-11-17T06:55:22.218Z,5.80
2022-11-17T06:56:24.041Z,5.53
2022-11-17T06:57:25.609Z,5.80
2022-11-17T06:58:28.003Z,5.47
2022-11-17T06:59:29.603Z,6.03
2022-11-17T07:00:31.266Z,5.97
2022-11-17T07:01:33.003Z,5.35
2022-11-17T07:02:34.711Z,6.30
2022-11-17T07:03:38.171Z,5.78
2022-11-17T07:04:39.863Z,5.82
2022-11-17T07:05:41.451Z,5.88
2022-11-17T07:06:42.976Z,5.35
2022-11-17T07:07:44.520Z,5.95
2022-11-17T07:08:46.229Z,5.95
2022-11-17T07:09:47.753Z,5.97
2022-11-17T07:10:54.760Z,5.95
2022-11-17T07:11:57.364Z,5.35
2022-11-17T07:12:59.295Z,5.75
2022-11-17T07:14:00.826Z,5.88
2022-11-17T07:15:02.392Z,5.60
2022-11-17T07:16:14.591Z,5.65
2022-11-17T07:17:17.927Z,5.43
2022-11-17T07:18:20.580Z,5.68
2022-11-17T07:19:22.192Z,5.32
2022-11-17T07:20:23.745Z,5.90
2022-11-17T07:21:25.345Z,5.40
2022-11-17T07:22:26.898Z,5.85
2022-11-17T07:23:28.536Z,5.70
2022-11-17T07:24:30.109Z,6.05
2022-11-17T07:25:31.653Z,5.68
2022-11-17T07:26:33.226Z,5.30
2022-11-17T07:27:35.063Z,5.50
2022-11-17T07:28:37.092Z,5.60
2022-11-17T07:29:38.827Z,5.05
2022-11-17T07:30:40.872Z,5.55
2022-11-17T07:31:43.349Z,5.65
2022-11-17T07:32:44.959Z,5.53
2022-11-17T07:33:46.584Z,5.60
2022-11-17T07:34:48.129Z,5.32
2022-11-17T07:35:49.809Z,5.97
2022-11-17T07:36:51.353Z,5.47
2022-11-17T07:37:58.022Z,5.40
2022-11-17T07:38:59.558Z,5.45
2022-11-17T07:40:01.136Z,5.63
2022-11-17T07:41:03.979Z,5.25
2022-11-17T07:42:05.958Z,5.70
2022-11-17T07:43:07.778Z,5.32
2022-11-17T07:44:09.403Z,5.50
2022-11-17T07:45:11.118Z,5.57
2022-11-17T07:46:14.418Z,5.90
2022-11-17T07:47:16.006Z,5.28
2022-11-17T07:48:17.556Z,5.53
2022-11-17T07:49:19.136Z,5.38
2022-11-17T07:50:20.868Z,5.82
2022-11-17T07:51:22.551Z,5.68
2022-11-17T07:52:24.080Z,5.32
2022-11-17T07:53:25.864Z,5.95
2022-11-17T07:54:28.014Z,5.40
2022-11-17T07:55:29.727Z,5.53
2022-11-17T07:56:31.318Z,5.18
2022-11-17T07:57:33.980Z,5.30
2022-11-17T07:58:36.849Z,5.57
2022-11-17T07:59:38.643Z,5.03
2022-11-17T08:00:40.285Z,5.30
2022-11-17T08:01:42.287Z,5.28
2022-11-17T08:02:43.844Z,5.60
2022-11-17T08:03:45.653Z,6.00
2022-11-17T08:04:47.280Z,6.57
2022-11-17T08:05:48.865Z,7.25
2022-11-17T08:06:51.953Z,7.55
2022-11-17T08:07:58.968Z,8.50
2022-11-17T08:09:00.549Z,7.65
2022-11-17T08:10:02.134Z,7.85
2022-11-17T08:11:08.870Z,7.90
2022-11-17T08:12:10.455Z,7.65
2022-11-17T08:13:14.142Z,7.45
2022-11-17T08:14:15.803Z,7.43
2022-11-17T08:15:17.683Z,7.05
2022-11-17T08:16:19.263Z,7.97
2022-11-17T08:17:20.804Z,7.05
2022-11-17T08:18:22.387Z,7.20
2022-11-17T08:19:23.948Z,7.13
2022-11-17T08:20:26.919Z,7.07
2022-11-17T08:21:28.670Z,6.55
2022-11-17T08:22:30.504Z,7.22
2022-11-17T08:23:32.526Z,7.10
2022-11-17T08:24:34.050Z,5.97
2022-11-17T08:25:35.694Z,6.97
2022-11-17T08:26:37.325Z,7.05
2022-11-17T08:27:38.875Z,6.45
2022-11-17T08:28:40.667Z,6.95
2022-11-17T08:29:42.510Z,6.88
2022-11-17T08:30:44.414Z,6.55
2022-11-17T08:31:46.434Z,6.10
2022-11-17T08:32:52.125Z,6.18
2022-11-17T08:33:53.774Z,6.50
2022-11-17T08:34:55.682Z,6.22
2022-11-17T08:35:58.686Z,6.97
2022-11-17T08:37:00.840Z,6.65
2022-11-17T08:38:02.387Z,6.57
2022-11-17T08:39:04.321Z,6.07
2022-11-17T08:40:06.517Z,6.95
2022-11-17T08:41:08.593Z,6.30
2022-11-17T08:42:10.194Z,6.05
2022-11-17T08:43:11.765Z,5.60
2022-11-17T08:44:13.319Z,5.53
2022-11-17T08:45:14.940Z,6.85
2022-11-17T08:46:16.589Z,6.45
2022-11-17T08:47:18.181Z,6.60
2022-11-17T08:48:20.439Z,6.05
2022-11-17T08:49:22.028Z,6.40
2022-11-17T08:50:23.767Z,6.43
2022-11-17T08:51:28.912Z,5.82
2022-11-17T08:52:30.512Z,5.90
2022-11-17T08:53:32.365Z,6.18
2022-11-17T08:54:33.985Z,5.55
2022-11-17T08:55:40.938Z,5.32
2022-11-17T08:56:43.205Z,5.43
2022-11-17T08:57:44.997Z,5.75
2022-11-17T08:58:46.538Z,5.80
2022-11-17T08:59:48.715Z,5.55
2022-11-17T09:00:50.409Z,5.53
2022-11-17T09:01:52.887Z,5.65
2022-11-17T09:02:54.435Z,5.80
2022-11-17T09:03:56.236Z,5.43
2022-11-17T09:04:57.785Z,5.63
2022-11-17T09:06:00.083Z,5.80
2022-11-17T09:07:01.727Z,5.93
2022-11-17T09:08:29.801Z,5.50
2022-11-17T09:09:25.076Z,5.85
2022-11-17T09:10:26.739Z,5.20
2022-11-17T09:11:28.254Z,5.70
2022-11-17T09:12:29.806Z,5.50
2022-11-17T09:13:31.952Z,4.97
2022-11-17T09:14:33.699Z,5.50
2022-11-17T09:15:35.591Z,5.38
2022-11-17T09:16:37.412Z,5.35
2022-11-17T09:17:40.357Z,5.63
2022-11-17T09:18:42.327Z,5.47
2022-11-17T09:19:43.968Z,5.25
2022-11-17T09:20:46.255Z,4.63
2022-11-17T09:21:47.945Z,4.97
2022-11-17T09:22:49.681Z,5.60
2022-11-17T09:23:51.208Z,4.85
2022-11-17T09:24:52.789Z,5.20
2022-11-17T09:25:54.328Z,4.80
2022-11-17T09:26:57.527Z,4.53
2022-11-17T09:27:59.162Z,4.93
2022-11-17T09:29:02.996Z,5.03
2022-11-17T09:30:05.302Z,4.75
2022-11-17T09:31:08.920Z,4.65
2022-11-17T09:32:10.550Z,4.22
2022-11-17T09:33:12.075Z,4.93
2022-11-17T09:34:13.739Z,5.32
2022-11-17T09:35:15.943Z,4.53
2022-11-17T09:36:17.839Z,4.88
2022-11-17T09:37:20.543Z,4.25
2022-11-17T09:38:22.101Z,4.75
2022-11-17T09:39:23.688Z,4.82
2022-11-17T09:40:25.364Z,4.38
2022-11-17T09:41:46.791Z,4.70
2022-11-17T09:42:48.393Z,4.38
2022-11-17T09:44:06.712Z,5.00
2022-11-17T09:45:36.317Z,4.70
2022-11-17T09:46:37.780Z,4.60
2022-11-17T09:48:12.394Z,3.97
2022-11-17T09:49:34.855Z,4.03
2022-11-17T09:50:40.924Z,3.95
2022-11-17T09:51:47.361Z,4.70
2022-11-17T09:53:14.152Z,4.03
2022-11-17T09:54:57.591Z,4.20
2022-11-17T09:56:04.336Z,3.95
2022-11-17T09:57:13.273Z,4.43
2022-11-17T09:58:14.762Z,4.00
2022-11-17T09:59:20.812Z,3.72
2022-11-17T10:00:23.225Z,4.10
2022-11-17T10:01:28.885Z,4.68
2022-11-17T10:02:30.753Z,3.92
2022-11-17T10:03:40.086Z,3.83
2022-11-17T10:04:45.368Z,4.03
2022-11-17T10:05:48.042Z,4.30
2022-11-17T10:06:50.987Z,3.75
2022-11-17T10:07:56.283Z,4.00
2022-11-17T10:09:00.793Z,4.30
2022-11-17T10:10:03.816Z,3.88
2022-11-17T10:11:30.979Z,3.78
2022-11-17T10:12:47.748Z,4.00
2022-11-17T10:13:50.517Z,3.80
2022-11-17T10:14:54.117Z,3.90
2022-11-17T10:16:02.349Z,3.72
2022-11-17T10:17:03.942Z,3.70
2022-11-17T10:18:13.534Z,3.53
2022-11-17T10:19:18.986Z,3.38
2022-11-17T10:20:21.006Z,3.55
2022-11-17T10:21:23.100Z,3.67
2022-11-17T10:22:34.515Z,3.60
2022-11-17T10:23:44.602Z,3.90
2022-11-17T10:24:55.556Z,3.25
2022-11-17T10:25:58.746Z,3.53
2022-11-17T10:27:03.044Z,3.50
2022-11-17T10:28:22.415Z,3.90
2022-11-17T10:29:24.042Z,3.38
2022-11-17T10:30:25.729Z,3.65
2022-11-17T10:31:29.460Z,3.42
2022-11-17T10:32:49.050Z,3.75
2022-11-17T10:33:51.012Z,3.55
2022-11-17T10:34:54.139Z,3.40
2022-11-17T10:35:56.737Z,4.00
2022-11-17T10:37:21.330Z,3.63
2022-11-17T10:38:24.891Z,3.28
2022-11-17T10:40:03.541Z,3.83
2022-11-17T10:41:05.317Z,3.75
2022-11-17T10:42:29.607Z,3.40
2022-11-17T10:43:37.139Z,3.45
2022-11-17T10:44:42.278Z,3.15
2022-11-17T10:45:45.488Z,3.45
2022-11-17T10:47:00.519Z,3.03
2022-11-17T10:48:24.281Z,3.25
2022-11-17T10:49:28.792Z,3.17
2022-11-17T10:50:30.382Z,3.63
2022-11-17T10:51:33.909Z,3.40
2022-11-17T10:52:35.488Z,3.42
2022-11-17T10:53:44.820Z,3.50
2022-11-17T10:54:47.654Z,3.28
2022-11-17T10:55:56.007Z,3.22
2022-11-17T10:57:00.340Z,3.38
2022-11-17T10:58:26.607Z,3.10
2022-11-17T10:59:55.202Z,3.17
2022-11-17T11:01:03.432Z,3.30
2022-11-17T11:02:30.980Z,3.30
2022-11-17T11:03:35.170Z,3.03
2022-11-17T11:04:41.935Z,3.13
2022-11-17T11:05:59.525Z,3.22
2022-11-17T11:07:21.838Z,3.20
2022-11-17T11:08:32.319Z,3.10
2022-11-17T11:09:39.951Z,3.13
2022-11-17T11:10:43.526Z,3.42
2022-11-17T11:11:48.306Z,3.13
2022-11-17T11:12:59.985Z,2.92
2022-11-17T11:14:14.158Z,3.08
2022-11-17T11:15:20.626Z,3.30
2022-11-17T11:16:24.750Z,3.00
2022-11-17T11:17:29.814Z,3.10
2022-11-17T11:18:32.502Z,2.90
2022-11-17T11:19:34.247Z,2.85
2022-11-17T11:21:01.781Z,3.03
2022-11-17T11:22:23.388Z,2.70
2022-11-17T11:23:39.270Z,2.97
2022-11-17T11:24:59.549Z,2.83
2022-11-17T11:26:13.395Z,2.95
2022-11-17T11:27:32.529Z,2.88
2022-11-17T11:28:54.771Z,3.05
2022-11-17T11:30:06.280Z,3.00
2022-11-17T11:31:29.211Z,3.20
2022-11-17T11:33:07.843Z,3.00
2022-11-17T11:34:33.797Z,3.40
2022-11-17T11:36:05.081Z,3.08
2022-11-17T11:37:15.147Z,2.90
2022-11-17T11:38:44.881Z,3.03
2022-11-17T11:40:15.487Z,2.92
2022-11-17T11:41:35.714Z,2.78
2022-11-17T11:42:49.427Z,2.85
2022-11-17T11:44:18.844Z,2.90
2022-11-17T11:45:29.281Z,2.97
2022-11-17T11:46:49.576Z,2.72
2022-11-17T11:48:25.199Z,2.80
2022-11-17T11:49:42.348Z,2.75
2022-11-17T11:50:55.191Z,2.75
2022-11-17T11:51:57.381Z,2.95
2022-11-17T11:53:16.967Z,3.03
2022-11-17T11:54:49.408Z,2.72
2022-11-17T11:56:07.662Z,2.85
2022-11-17T11:57:13.893Z,2.80
2022-11-17T11:58:21.908Z,2.80
2022-11-17T11:59:50.667Z,2.85
2022-11-17T12:00:58.631Z,2.55
2022-11-17T12:02:12.648Z,2.88
2022-11-17T12:03:29.486Z,2.42
2022-11-17T12:04:38.004Z,2.30
2022-11-17T12:06:22.333Z,2.53
2022-11-17T12:07:41.369Z,3.00
2022-11-17T12:08:49.755Z,2.88
2022-11-17T12:09:51.239Z,2.55
2022-11-17T12:11:25.681Z,2.80
2022-11-17T12:12:36.661Z,2.60
2022-11-17T12:13:51.228Z,2.70
2022-11-17T12:15:20.368Z,2.55
2022-11-17T12:16:36.218Z,2.50
2022-11-17T12:17:54.576Z,2.20
2022-11-17T12:18:56.114Z,2.63
2022-11-17T12:20:07.557Z,2.60
2022-11-17T12:21:13.200Z,2.70
2022-11-17T12:22:29.664Z,3.15
2022-11-17T12:23:46.247Z,2.28
2022-11-17T12:24:47.963Z,2.50
2022-11-17T12:25:54.367Z,2.60
2022-11-17T12:27:34.248Z,2.22
2022-11-17T12:28:40.239Z,2.10
2022-11-17T12:29:46.695Z,2.55
2022-11-17T12:30:52.086Z,2.35
2022-11-17T12:32:02.068Z,2.58
2022-11-17T12:33:08.561Z,2.58
2022-11-17T12:34:21.821Z,2.50
2022-11-17T12:35:26.190Z,2.40
2022-11-17T12:36:33.107Z,2.30
2022-11-17T12:37:34.701Z,2.40
2022-11-17T12:38:40.058Z,2.50
2022-11-17T12:40:37.048Z,2.40
2022-11-17T12:41:54.517Z,2.53
2022-11-17T12:43:14.592Z,2.80
2022-11-17T12:44:37.772Z,2.45
2022-11-17T12:46:07.495Z,2.65
2022-11-17T12:47:27.656Z,2.30
2022-11-17T12:48:38.096Z,2.53
2022-11-17T12:49:48.678Z,2.50
2022-11-17T12:51:17.128Z,2.30
2022-11-17T12:53:03.715Z,2.53
2022-11-17T12:54:14.421Z,2.40
2022-11-17T12:55:21.410Z,2.50
2022-11-17T12:56:35.135Z,2.50
2022-11-17T12:57:36.770Z,2.50
2022-11-17T12:59:07.902Z,2.25
2022-11-17T13:00:22.112Z,2.30
2022-11-17T13:01:48.235Z,2.40
2022-11-17T13:03:16.224Z,2.40
2022-11-17T13:04:20.767Z,2.42
2022-11-17T13:05:28.819Z,2.10
2022-11-17T13:06:37.469Z,2.63
2022-11-17T13:07:39.106Z,2.38
2022-11-17T13:08:41.427Z,2.20
2022-11-17T13:09:42.979Z,2.50
2022-11-17T13:10:45.102Z,2.60
2022-11-17T13:11:59.638Z,2.63
2022-11-17T13:13:22.237Z,2.38
2022-11-17T13:14:23.775Z,2.38
2022-11-17T13:15:25.385Z,2.40
2022-11-17T13:16:27.003Z,2.40
2022-11-17T13:17:33.016Z,2.45
2022-11-17T13:18:41.983Z,2.47
2022-11-17T13:19:43.948Z,2.28
2022-11-17T13:20:48.557Z,2.33
2022-11-17T13:21:59.629Z,2.22
2022-11-17T13:23:02.453Z,2.38
2022-11-17T13:24:04.116Z,2.70
2022-11-17T13:25:24.048Z,2.40
2022-11-17T13:26:28.367Z,2.20
2022-11-17T13:27:31.565Z,2.17
2022-11-17T13:28:33.287Z,2.20
2022-11-17T13:29:35.757Z,2.42
2022-11-17T13:30:38.119Z,2.13
2022-11-17T13:31:39.737Z,2.33
2022-11-17T13:32:43.472Z,2.42
2022-11-17T13:33:55.911Z,2.30
2022-11-17T13:34:58.166Z,2.15
2022-11-17T13:36:09.246Z,2.15
2022-11-17T13:37:16.198Z,1.95
2022-11-17T13:38:19.338Z,2.17
2022-11-17T13:39:26.886Z,2.10
2022-11-17T13:40:29.928Z,2.17
2022-11-17T13:41:38.733Z,2.00
2022-11-17T13:42:40.431Z,1.98
2022-11-17T13:43:42.303Z,2.05
2022-11-17T13:44:43.908Z,2.30
2022-11-17T13:45:47.208Z,2.15
2022-11-17T13:46:48.730Z,2.10
2022-11-17T13:47:50.910Z,2.30
2022-11-17T13:48:52.743Z,1.80
2022-11-17T13:49:54.355Z,2.05
2022-11-17T13:50:55.980Z,2.13
2022-11-17T13:51:57.683Z,2.03
2022-11-17T13:53:11.043Z,2.10
2022-11-17T13:54:16.135Z,2.10
2022-11-17T13:55:22.751Z,2.30
2022-11-17T13:56:38.473Z,2.00
2022-11-17T13:57:40.117Z,2.17
2022-11-17T13:58:41.663Z,1.90
2022-11-17T13:59:44.669Z,2.25
2022-11-17T14:00:54.338Z,2.10
2022-11-17T14:02:19.375Z,1.83
2022-11-17T14:03:32.807Z,1.80
2022-11-17T14:04:34.455Z,2.20
2022-11-17T14:05:36.066Z,2.17
2022-11-17T14:06:59.986Z,1.98
2022-11-17T14:08:24.640Z,2.10
2022-11-17T14:09:28.863Z,2.00
2022-11-17T14:10:34.274Z,2.08
2022-11-17T14:11:40.798Z,1.98
2022-11-17T14:12:42.601Z,1.92
2022-11-17T14:13:45.345Z,1.95
2022-11-17T14:14:46.879Z,2.00
2022-11-17T14:16:00.894Z,1.85
2022-11-17T14:17:19.349Z,2.30
2022-11-17T14:18:20.873Z,2.10
2022-11-17T14:19:30.747Z,2.05
2022-11-17T14:20:34.369Z,1.90
2022-11-17T14:21:35.951Z,1.90
2022-11-17T14:22:37.540Z,2.10
2022-11-17T14:23:40.249Z,1.80
2022-11-17T14:24:41.810Z,2.10
2022-11-17T14:25:53.109Z,2.22
2022-11-17T14:26:55.139Z,2.28
2022-11-17T14:27:56.738Z,2.00
2022-11-17T14:29:02.876Z,2.10
2022-11-17T14:30:05.508Z,2.15
2022-11-17T14:31:12.495Z,2.00
2022-11-17T14:32:14.085Z,2.00
2022-11-17T14:33:15.781Z,1.80
2022-11-17T14:34:17.716Z,1.80
2022-11-17T14:35:19.652Z,2.10
2022-11-17T14:36:21.363Z,2.13
2022-11-17T14:37:22.951Z,2.03
2022-11-17T14:38:25.386Z,1.98
2022-11-17T14:39:26.944Z,1.80
2022-11-17T14:40:28.621Z,1.75
2022-11-17T14:41:30.228Z,1.95
2022-11-17T14:42:35.999Z,1.80
2022-11-17T14:43:38.108Z,1.92
2022-11-17T14:44:39.670Z,2.10
2022-11-17T14:45:41.260Z,2.05
2022-11-17T14:46:43.207Z,1.70
2022-11-17T14:47:44.846Z,1.60
2022-11-17T14:48:46.525Z,2.00
2022-11-17T14:49:48.093Z,1.90
2022-11-17T14:50:56.368Z,2.13
2022-11-17T14:51:59.292Z,1.92